Terminal Aerodrome Forecast
Issued by NWS Corpus Christi, TX

Home | Current Version | Previous Version | Text Only | Print | Product List | Glossary On
Versions: 1 2 3 4 5 6 7 8 9 10 11 12 13 14 15 16 17 18 19 20 21 22 23 24 25 26 27 28
849
FTUS44 KCRP 211649 AAB
TAFCRP
TAF AMD
KCRP 211649Z 2117/2212 17017G24KT P6SM OVC015
     FM212000 16014G20KT P6SM BKN025 BKN040
     FM220000 18011KT P6SM SCT020 BKN040
     FM220400 19007KT 5SM BR SCT006 BKN030
     FM220800 24005KT 2SM BR BKN004=

USA.gov is the U.S. government's official web portal to all federal, state and local government web resources and services.